createdAt,value
2019-06-08T00:01:26.444Z,1004.38
2019-06-08T00:07:26.376Z,1004.34
2019-06-08T00:13:26.408Z,1004.64
2019-06-08T00:19:27.244Z,1004.77
2019-06-08T00:25:26.401Z,1004.69
2019-06-08T00:31:26.407Z,1004.84
2019-06-08T00:37:26.484Z,1004.91
2019-06-08T00:43:26.423Z,1005.08
2019-06-08T00:49:26.422Z,1005.16
2019-06-08T00:55:26.482Z,1005.26
2019-06-08T01:01:28.018Z,1005.38
2019-06-08T01:07:26.542Z,1005.47
2019-06-08T01:13:26.962Z,1005.64
2019-06-08T01:19:27.427Z,1005.51
2019-06-08T01:25:27.900Z,1005.88
2019-06-08T01:31:28.371Z,1006.08
2019-06-08T01:37:27.036Z,1006.18
2019-06-08T01:43:27.735Z,1005.92
2019-06-08T01:49:26.413Z,1006.05
2019-06-08T01:55:27.052Z,1006.03
2019-06-08T02:01:27.634Z,1006.42
2019-06-08T02:07:26.429Z,1006.44
2019-06-08T02:13:26.900Z,1006.26
2019-06-08T02:19:26.645Z,1006.21
2019-06-08T02:25:27.303Z,1006.45
2019-06-08T02:31:30.561Z,1006.56
2019-06-08T02:37:26.449Z,1006.49
2019-06-08T02:43:26.501Z,1006.63
2019-06-08T02:49:29.133Z,1006.59
2019-06-08T02:55:26.469Z,1006.58
2019-06-08T03:01:26.586Z,1006.74
2019-06-08T03:07:26.457Z,1006.76
2019-06-08T03:13:26.495Z,1006.74
2019-06-08T03:19:26.489Z,1006.76
2019-06-08T03:25:26.449Z,1006.85
2019-06-08T03:31:28.858Z,1006.88
2019-06-08T03:37:26.521Z,1006.85
2019-06-08T03:43:28.596Z,1007.21
2019-06-08T03:49:40.993Z,1007.29
2019-06-08T03:55:26.488Z,1007.39
2019-06-08T04:01:26.507Z,1007.49
2019-06-08T04:07:26.580Z,1007.50
2019-06-08T04:13:26.498Z,1007.65
2019-06-08T04:19:26.524Z,1007.66
2019-06-08T04:25:26.489Z,1007.79
2019-06-08T04:31:26.549Z,1007.88
2019-06-08T04:37:26.568Z,1008.14
2019-06-08T04:43:26.506Z,1008.16
2019-06-08T04:49:26.555Z,1008.25
2019-06-08T04:55:26.505Z,1008.40
2019-06-08T05:01:26.543Z,1008.59
2019-06-08T05:07:26.555Z,1008.61
2019-06-08T05:13:26.574Z,1008.67
2019-06-08T05:19:28.650Z,1008.67
2019-06-08T05:25:28.931Z,1008.88
2019-06-08T05:31:26.591Z,1008.84
2019-06-08T05:37:26.853Z,1009.04
2019-06-08T05:43:26.582Z,1009.09
2019-06-08T05:49:26.826Z,1009.12
2019-06-08T05:55:26.594Z,1009.26
2019-06-08T06:01:28.932Z,1009.33
2019-06-08T06:07:26.665Z,1009.32
2019-06-08T06:13:26.557Z,1009.34
2019-06-08T06:19:26.571Z,1009.42
2019-06-08T06:25:26.595Z,1009.40
2019-06-08T06:31:26.587Z,1009.50
2019-06-08T06:37:28.945Z,1009.50
2019-06-08T06:43:26.622Z,1009.67
2019-06-08T06:49:26.617Z,1009.81
2019-06-08T06:55:26.598Z,1009.85
2019-06-08T07:01:26.626Z,1009.89
2019-06-08T07:07:26.639Z,1010.00
2019-06-08T07:13:26.642Z,1010.08
2019-06-08T07:19:26.658Z,1010.05
2019-06-08T07:25:26.594Z,1010.03
2019-06-08T07:31:26.711Z,1010.22
2019-06-08T07:37:26.644Z,1010.17
2019-06-08T07:43:26.652Z,1010.05
2019-06-08T07:49:26.731Z,1010.05
2019-06-08T07:55:26.664Z,1010.06
2019-06-08T08:01:35.844Z,1010.17
2019-06-08T08:07:26.681Z,1009.99
2019-06-08T08:13:26.717Z,1009.98
2019-06-08T08:19:26.694Z,1010.14
2019-06-08T08:25:28.161Z,1010.07
2019-06-08T08:31:27.846Z,1010.05
2019-06-08T08:37:28.095Z,1010.02
2019-06-08T08:43:28.012Z,1010.06
2019-06-08T08:49:28.116Z,1010.13
2019-06-08T08:55:27.967Z,1010.07
2019-06-08T09:01:28.858Z,1010.15
2019-06-08T09:07:27.548Z,1010.13
2019-06-08T09:13:28.112Z,1010.20
2019-06-08T09:19:28.045Z,1010.27
2019-06-08T09:25:28.054Z,1010.27
2019-06-08T09:31:30.594Z,1010.23
2019-06-08T09:37:28.727Z,1010.37
2019-06-08T09:43:28.766Z,1010.52
2019-06-08T09:49:27.983Z,1010.42
2019-06-08T09:55:28.782Z,1010.42
2019-06-08T10:01:28.641Z,1010.46
2019-06-08T10:07:31.040Z,1010.54
2019-06-08T10:13:27.998Z,1010.51
2019-06-08T10:19:26.772Z,1010.50
2019-06-08T10:25:30.660Z,1010.48
2019-06-08T10:31:36.482Z,1010.46
2019-06-08T10:37:28.320Z,1010.42
2019-06-08T10:43:28.930Z,1010.44
2019-06-08T10:49:28.635Z,1010.50
2019-06-08T10:55:28.085Z,1010.59
2019-06-08T11:01:28.307Z,1010.48
2019-06-08T11:07:27.978Z,1010.58
2019-06-08T11:13:28.256Z,1010.52
2019-06-08T11:19:26.910Z,1010.42
2019-06-08T11:25:29.245Z,1010.48
2019-06-08T11:31:28.905Z,1010.49
2019-06-08T11:37:26.911Z,1010.49
2019-06-08T11:43:28.692Z,1010.46
2019-06-08T11:49:30.564Z,1010.44
2019-06-08T11:55:28.177Z,1010.44
2019-06-08T12:01:27.645Z,1010.39
2019-06-08T12:07:28.233Z,1010.49
